createdAt,value
2022-12-25T00:00:20.459Z,101215.78
2022-12-25T00:02:51.705Z,101207.03
2022-12-25T00:05:22.386Z,101201.34
2022-12-25T00:07:55.275Z,101202.88
2022-12-25T00:10:26.319Z,101206.41
2022-12-25T00:12:57.725Z,101211.16
2022-12-25T00:15:28.631Z,101201.97
2022-12-25T00:18:01.330Z,101193.44
2022-12-25T00:20:32.135Z,101194.00
2022-12-25T00:23:02.721Z,101204.41
2022-12-25T00:25:33.134Z,101207.03
2022-12-25T00:28:04.399Z,101202.88
2022-12-25T00:30:35.618Z,101204.84
2022-12-25T00:33:06.475Z,101210.59
2022-12-25T00:35:37.260Z,101221.56
2022-12-25T00:38:08.150Z,101223.25
2022-12-25T00:40:45.199Z,101228.78
2022-12-25T00:43:15.767Z,101212.00
2022-12-25T00:45:54.681Z,101219.19
2022-12-25T00:48:25.926Z,101214.19
2022-12-25T00:50:58.399Z,101222.56
2022-12-25T00:53:30.105Z,101222.94
2022-12-25T00:56:04.264Z,101226.09
2022-12-25T00:58:36.391Z,101210.59
2022-12-25T01:01:07.084Z,101220.25
2022-12-25T01:03:40.192Z,101223.09
2022-12-25T01:06:15.278Z,101227.16
2022-12-25T01:09:05.827Z,101222.16
2022-12-25T01:11:38.955Z,101227.22
2022-12-25T01:14:13.453Z,101216.16
2022-12-25T01:16:44.488Z,101228.59
2022-12-25T01:19:15.497Z,101223.38
2022-12-25T01:21:46.498Z,101219.84
2022-12-25T01:24:17.258Z,101226.66
2022-12-25T01:26:47.796Z,101230.72
2022-12-25T01:29:18.592Z,101217.91
2022-12-25T01:31:49.233Z,101216.59
2022-12-25T01:34:20.584Z,101227.00
2022-12-25T01:36:51.541Z,101232.13
2022-12-25T01:39:22.384Z,101220.69
2022-12-25T01:41:53.157Z,101222.06
2022-12-25T01:44:38.825Z,101210.81
2022-12-25T01:47:09.831Z,101217.41
2022-12-25T01:49:43.542Z,101217.13
2022-12-25T01:52:25.547Z,101200.34
2022-12-25T01:55:02.721Z,101208.78
2022-12-25T01:57:36.453Z,101201.53
2022-12-25T02:00:09.058Z,101196.53
2022-12-25T02:02:39.994Z,101193.03
2022-12-25T02:05:16.702Z,101187.16
2022-12-25T02:07:50.758Z,101184.13
2022-12-25T02:10:21.353Z,101190.03
2022-12-25T02:12:51.770Z,101168.72
2022-12-25T02:15:24.214Z,101172.28
2022-12-25T02:18:15.970Z,101170.47
2022-12-25T02:20:49.788Z,101163.91
2022-12-25T02:23:37.508Z,101160.88
2022-12-25T02:26:45.505Z,101158.84
2022-12-25T02:29:43.605Z,101152.47
2022-12-25T02:32:17.776Z,101155.53
2022-12-25T02:34:53.921Z,101152.13
2022-12-25T02:37:42.028Z,101157.53
2022-12-25T02:40:16.147Z,101166.63
2022-12-25T02:43:23.258Z,101156.50
2022-12-25T02:46:20.871Z,101157.84
2022-12-25T02:49:23.386Z,101160.88
2022-12-25T02:52:17.212Z,101162.56
2022-12-25T02:55:11.115Z,101164.25
2022-12-25T02:58:03.020Z,101157.50
2022-12-25T03:00:59.157Z,101171.31
2022-12-25T03:03:51.448Z,101162.22
2022-12-25T03:06:41.113Z,101161.88
2022-12-25T03:09:42.187Z,101157.16
2022-12-25T03:12:22.563Z,101146.69
2022-12-25T03:15:11.397Z,101141.31
2022-12-25T03:17:41.756Z,101148.38
2022-12-25T03:20:31.795Z,101146.03
2022-12-25T03:23:21.060Z,101143.81
2022-12-25T03:26:10.507Z,101139.75
2022-12-25T03:28:41.389Z,101137.06
2022-12-25T03:31:21.612Z,101127.28
2022-12-25T03:34:16.384Z,101126.81
2022-12-25T03:37:16.061Z,101144.19
2022-12-25T03:40:24.935Z,101115.91
2022-12-25T03:43:19.575Z,101116.59
2022-12-25T03:46:11.154Z,101115.44
2022-12-25T03:49:02.474Z,101101.97
2022-12-25T03:51:56.020Z,101099.97
2022-12-25T03:54:47.413Z,101093.91
2022-12-25T03:57:45.830Z,101093.06
2022-12-25T04:00:49.000Z,101094.56
2022-12-25T04:03:38.070Z,101089.69
2022-12-25T04:06:26.989Z,101086.47
2022-12-25T04:09:16.277Z,101078.75
2022-12-25T04:12:06.218Z,101073.38
2022-12-25T04:14:55.782Z,101064.94
2022-12-25T04:17:45.552Z,101062.09
2022-12-25T04:20:34.825Z,101057.88
2022-12-25T04:23:26.235Z,101064.09
2022-12-25T04:26:18.148Z,101054.34
2022-12-25T04:29:06.765Z,101039.38
2022-12-25T04:31:55.519Z,101044.75
2022-12-25T04:34:44.727Z,101032.94
2022-12-25T04:37:15.644Z,101028.72
2022-12-25T04:39:46.594Z,101038.31
2022-12-25T04:42:18.159Z,101033.41
2022-12-25T04:44:48.526Z,101039.44
2022-12-25T04:47:22.150Z,101031.22
2022-12-25T04:49:52.983Z,101029.19
2022-12-25T04:52:23.562Z,101034.25
2022-12-25T04:54:57.636Z,101025.81
2022-12-25T04:57:27.989Z,101016.53
2022-12-25T04:59:58.755Z,101015.41
2022-12-25T05:02:29.612Z,101011.53
2022-12-25T05:05:01.085Z,101000.25
2022-12-25T05:07:32.018Z,101010.47
2022-12-25T05:10:02.405Z,101004.28
2022-12-25T05:12:33.604Z,100996.19
2022-12-25T05:15:04.457Z,101019.81
2022-12-25T05:17:35.094Z,101016.56
2022-12-25T05:20:07.200Z,101008.81
2022-12-25T05:22:38.134Z,101005.78
2022-12-25T05:25:09.715Z,101007.00
2022-12-25T05:27:40.571Z,100997.91
2022-12-25T05:30:11.507Z,100993.56
2022-12-25T05:32:43.447Z,101009.38
2022-12-25T05:35:17.332Z,100998.94
2022-12-25T05:37:49.943Z,100992.88
2022-12-25T05:40:21.048Z,100983.63
2022-12-25T05:42:52.029Z,100990.38
2022-12-25T05:45:24.181Z,100984.13
2022-12-25T05:48:03.176Z,100982.78
2022-12-25T05:50:33.542Z,100981.22
2022-12-25T05:53:14.676Z,100978.75
2022-12-25T05:55:45.880Z,100974.34
2022-12-25T05:58:17.017Z,100963.28
2022-12-25T06:00:47.375Z,100970.00
2022-12-25T06:03:17.984Z,100962.41
2022-12-25T06:05:48.777Z,100958.88
2022-12-25T06:08:19.394Z,100953.47
2022-12-25T06:10:52.982Z,100957.53
2022-12-25T06:13:23.316Z,100957.19
2022-12-25T06:15:54.276Z,100955.50
2022-12-25T06:18:25.118Z,100956.53
2022-12-25T06:20:56.337Z,100953.47
2022-12-25T06:23:27.390Z,100954.75
2022-12-25T06:25:58.426Z,100955.94
2022-12-25T06:28:29.512Z,100949.38
2022-12-25T06:31:00.028Z,100958.47
2022-12-25T06:33:30.695Z,100953.75
2022-12-25T06:36:01.548Z,100954.72
2022-12-25T06:38:31.890Z,100958.13
2022-12-25T06:41:11.311Z,100953.50
2022-12-25T06:43:41.906Z,100958.06
2022-12-25T06:46:14.265Z,100956.75
2022-12-25T06:48:56.449Z,100958.06
2022-12-25T06:51:29.303Z,100950.28
2022-12-25T06:54:04.124Z,100958.06
2022-12-25T06:56:35.871Z,100962.25
2022-12-25T06:59:11.342Z,100962.13
2022-12-25T07:01:41.997Z,100966.00
2022-12-25T07:04:39.254Z,100961.47
2022-12-25T07:07:11.582Z,100960.47
2022-12-25T07:09:43.463Z,100956.78
2022-12-25T07:12:18.394Z,100961.81
2022-12-25T07:14:52.200Z,100970.63
2022-12-25T07:17:25.115Z,100958.78
2022-12-25T07:19:57.617Z,100961.16
2022-12-25T07:22:30.445Z,100964.53
2022-12-25T07:25:01.117Z,100966.56
2022-12-25T07:27:32.221Z,100971.94
2022-12-25T07:30:02.730Z,100976.34
2022-12-25T07:32:33.855Z,100974.00
2022-12-25T07:35:05.133Z,100969.44
2022-12-25T07:37:35.784Z,100979.22
2022-12-25T07:40:06.581Z,100984.47
2022-12-25T07:42:37.586Z,100966.63
2022-12-25T07:45:08.844Z,100976.38
2022-12-25T07:47:40.677Z,100978.56
2022-12-25T07:50:12.271Z,100972.84
2022-12-25T07:52:43.932Z,100982.44
2022-12-25T07:55:15.235Z,100988.13
2022-12-25T07:57:45.993Z,100991.53
2022-12-25T08:00:16.909Z,100991.53
2022-12-25T08:02:50.236Z,100988.88
2022-12-25T08:05:21.021Z,100992.94
2022-12-25T08:07:58.106Z,101001.00
2022-12-25T08:10:28.608Z,101009.09
2022-12-25T08:12:59.011Z,101004.84
2022-12-25T08:15:30.884Z,101002.03
2022-12-25T08:18:04.343Z,100999.97
2022-12-25T08:20:35.845Z,101005.91
2022-12-25T08:23:07.254Z,101012.47
2022-12-25T08:25:37.625Z,100998.84
2022-12-25T08:28:08.168Z,100998.66
2022-12-25T08:30:42.484Z,100997.63
2022-12-25T08:33:13.504Z,101001.34
2022-12-25T08:35:47.284Z,101001.69
2022-12-25T08:38:28.329Z,101011.28
2022-12-25T08:40:59.001Z,101010.09
2022-12-25T08:43:29.835Z,101019.53
2022-12-25T08:46:06.174Z,101021.53
2022-12-25T08:48:37.472Z,101017.03
2022-12-25T08:51:16.552Z,101032.31
2022-12-25T08:53:49.102Z,101038.03
2022-12-25T08:56:23.454Z,101031.50
2022-12-25T08:58:54.043Z,101033.00
2022-12-25T09:01:24.651Z,101039.59
2022-12-25T09:03:57.931Z,101038.25
2022-12-25T09:06:29.108Z,101050.19
2022-12-25T09:09:02.228Z,101039.41
2022-12-25T09:11:32.585Z,101051.84
2022-12-25T09:14:03.537Z,101048.84
2022-12-25T09:16:34.733Z,101059.25
2022-12-25T09:19:05.587Z,101057.25
2022-12-25T09:21:37.724Z,101057.91
2022-12-25T09:24:08.742Z,101064.47
2022-12-25T09:26:40.674Z,101062.81
2022-12-25T09:29:11.724Z,101068.34
2022-12-25T09:31:41.856Z,101062.47
2022-12-25T09:34:17.268Z,101064.63
2022-12-25T09:36:49.723Z,101065.66
2022-12-25T09:39:20.082Z,101068.88
2022-12-25T09:42:21.323Z,101073.06
2022-12-25T09:44:58.244Z,101080.47
2022-12-25T09:47:45.859Z,101077.78
2022-12-25T09:50:39.822Z,101079.13
2022-12-25T09:53:27.596Z,101085.00
2022-12-25T09:56:12.403Z,101082.00
2022-12-25T09:58:43.024Z,101094.25
2022-12-25T10:01:15.178Z,101087.88
2022-12-25T10:03:56.581Z,101096.94
2022-12-25T10:06:50.400Z,101094.59
2022-12-25T10:09:31.211Z,101094.59
2022-12-25T10:12:13.222Z,101096.56
2022-12-25T10:15:01.316Z,101107.34
2022-12-25T10:17:40.351Z,101115.75
2022-12-25T10:20:40.837Z,101130.19
2022-12-25T10:23:21.671Z,101121.47
2022-12-25T10:25:55.434Z,101128.53
2022-12-25T10:28:39.577Z,101129.88
2022-12-25T10:31:24.282Z,101128.53
2022-12-25T10:33:56.303Z,101138.25
2022-12-25T10:36:28.839Z,101144.47
2022-12-25T10:38:59.503Z,101143.44
2022-12-25T10:41:51.060Z,101144.97
2022-12-25T10:44:25.472Z,101144.28
2022-12-25T10:47:03.449Z,101150.34
2022-12-25T10:49:41.208Z,101156.75
2022-12-25T10:52:23.573Z,101166.97
2022-12-25T10:54:55.077Z,101179.22
2022-12-25T10:57:28.887Z,101169.84
2022-12-25T10:59:59.800Z,101177.56
2022-12-25T11:02:39.738Z,101174.47
2022-12-25T11:05:16.993Z,101181.56
2022-12-25T11:07:52.109Z,101185.63
2022-12-25T11:10:31.850Z,101194.03
2022-12-25T11:13:03.458Z,101198.56
2022-12-25T11:15:46.990Z,101198.09
2022-12-25T11:18:25.538Z,101204.25
2022-12-25T11:21:26.003Z,101207.28
2022-12-25T11:24:00.690Z,101209.13
2022-12-25T11:26:38.890Z,101206.78
2022-12-25T11:29:24.217Z,101204.75
2022-12-25T11:31:57.038Z,101222.25
2022-12-25T11:34:39.570Z,101213.34
2022-12-25T11:37:17.861Z,101216.03
2022-12-25T11:39:50.363Z,101213.19
2022-12-25T11:42:27.470Z,101214.50
2022-12-25T11:45:05.989Z,101218.03
2022-12-25T11:47:46.638Z,101223.09
2022-12-25T11:50:35.059Z,101236.31
2022-12-25T11:53:22.070Z,101237.34
2022-12-25T11:56:04.458Z,101237.16
2022-12-25T11:58:40.276Z,101241.72
2022-12-25T12:01:17.331Z,101246.09
2022-12-25T12:03:48.749Z,101241.72
2022-12-25T12:06:29.230Z,101242.41
2022-12-25T12:09:16.009Z,101240.19
2022-12-25T12:12:02.444Z,101245.09
2022-12-25T12:14:54.317Z,101249.78
2022-12-25T12:17:25.491Z,101253.47
2022-12-25T12:19:56.985Z,101251.47
2022-12-25T12:22:29.720Z,101257.50
2022-12-25T12:25:07.694Z,101258.53
2022-12-25T12:27:42.185Z,101253.47
2022-12-25T12:30:36.148Z,101255.16
2022-12-25T12:33:08.886Z,101251.78
2022-12-25T12:35:41.535Z,101250.75
2022-12-25T12:38:21.987Z,101255.16
2022-12-25T12:41:05.144Z,101253.81
2022-12-25T12:44:05.128Z,101267.13
2022-12-25T12:46:41.289Z,101261.38
2022-12-25T12:49:30.402Z,101264.91
2022-12-25T12:52:12.020Z,101256.84
2022-12-25T12:55:14.888Z,101262.56
2022-12-25T12:57:48.530Z,101269.63
2022-12-25T13:00:20.831Z,101269.72
2022-12-25T13:02:54.116Z,101269.94
2022-12-25T13:05:48.912Z,101267.06
2022-12-25T13:08:33.260Z,101268.97
2022-12-25T13:11:06.605Z,101272.94
2022-12-25T13:13:42.775Z,101268.75
2022-12-25T13:16:41.442Z,101268.94
2022-12-25T13:19:34.845Z,101278.16
2022-12-25T13:22:08.580Z,101278.00
2022-12-25T13:24:39.487Z,101270.56
2022-12-25T13:27:27.850Z,101270.44
2022-12-25T13:29:59.506Z,101274.25
2022-12-25T13:32:32.323Z,101272.25
2022-12-25T13:35:03.354Z,101266.50
2022-12-25T13:37:37.149Z,101274.59
2022-12-25T13:40:09.524Z,101279.38
2022-12-25T13:42:47.893Z,101276.00
2022-12-25T13:45:56.071Z,101281.06
2022-12-25T13:48:27.208Z,101280.25
2022-12-25T13:50:59.527Z,101282.47
2022-12-25T13:53:30.775Z,101274.25
2022-12-25T13:56:01.371Z,101281.31
2022-12-25T13:58:34.837Z,101281.66
2022-12-25T14:01:05.674Z,101286.25
2022-12-25T14:03:38.918Z,101284.56
2022-12-25T14:06:32.317Z,101291.00
2022-12-25T14:09:03.500Z,101304.06
2022-12-25T14:11:34.561Z,101299.00
2022-12-25T14:14:19.977Z,101299.81
2022-12-25T14:16:54.252Z,101293.63
2022-12-25T14:19:28.996Z,101283.69
2022-12-25T14:22:25.900Z,101286.75
2022-12-25T14:24:56.824Z,101288.25
2022-12-25T14:27:33.887Z,101273.13
2022-12-25T14:30:05.227Z,101278.50
2022-12-25T14:32:42.078Z,101286.38
2022-12-25T14:35:18.219Z,101285.81
2022-12-25T14:38:03.130Z,101287.69
2022-12-25T14:40:36.911Z,101283.63
2022-12-25T14:43:27.527Z,101286.13
2022-12-25T14:46:03.857Z,101277.94
2022-12-25T14:48:34.835Z,101286.69
2022-12-25T14:51:11.359Z,101283.50
2022-12-25T14:53:51.394Z,101272.94
2022-12-25T14:56:23.900Z,101269.38
2022-12-25T14:58:58.975Z,101271.69
2022-12-25T15:01:41.563Z,101266.22
2022-12-25T15:04:16.620Z,101273.38
2022-12-25T15:07:00.469Z,101273.69
2022-12-25T15:09:31.513Z,101256.75
2022-12-25T15:12:02.594Z,101250.84
2022-12-25T15:14:33.788Z,101248.16
2022-12-25T15:17:04.277Z,101252.69
2022-12-25T15:19:38.906Z,101256.19
2022-12-25T15:22:12.904Z,101250.31
2022-12-25T15:24:43.572Z,101252.50
2022-12-25T15:27:22.365Z,101254.22
2022-12-25T15:30:09.677Z,101247.16
2022-12-25T15:32:41.846Z,101254.16
2022-12-25T15:35:19.729Z,101257.53
2022-12-25T15:37:51.714Z,101253.84
2022-12-25T15:40:22.419Z,101250.63
2022-12-25T15:42:56.328Z,101253.69
2022-12-25T15:45:31.385Z,101248.31
2022-12-25T15:48:04.116Z,101244.31
2022-12-25T15:50:37.616Z,101239.03
2022-12-25T15:53:08.566Z,101242.72
2022-12-25T15:55:39.129Z,101248.41
2022-12-25T15:59:21.033Z,101240.78
2022-12-25T16:01:55.632Z,101243.47
2022-12-25T16:04:28.610Z,101236.25
2022-12-25T16:07:00.793Z,101234.41
2022-12-25T16:09:31.020Z,101224.28
2022-12-25T16:12:01.666Z,101229.97
2022-12-25T16:14:32.055Z,101226.28
2022-12-25T16:17:02.622Z,101226.28
2022-12-25T16:19:33.743Z,101223.22
2022-12-25T16:22:16.911Z,101225.75
2022-12-25T16:24:47.723Z,101222.03
2022-12-25T16:27:18.326Z,101220.16
2022-12-25T16:29:57.527Z,101221.03
2022-12-25T16:32:30.952Z,101207.72
2022-12-25T16:35:01.272Z,101202.16
2022-12-25T16:37:32.091Z,101204.53
2022-12-25T16:40:02.760Z,101194.63
2022-12-25T16:42:33.313Z,101202.69
2022-12-25T16:45:07.418Z,101197.31
2022-12-25T16:47:38.584Z,101198.47
2022-12-25T16:50:09.811Z,101194.78
2022-12-25T16:52:40.258Z,101193.63
2022-12-25T16:55:11.222Z,101190.56
2022-12-25T16:57:41.744Z,101192.56
2022-12-25T17:00:13.870Z,101199.63
2022-12-25T17:02:46.070Z,101193.41
2022-12-25T17:05:17.128Z,101196.25
2022-12-25T17:07:47.929Z,101197.25
2022-12-25T17:10:18.537Z,101193.16
2022-12-25T17:12:48.730Z,101191.19
2022-12-25T17:15:20.391Z,101181.72
2022-12-25T17:17:51.401Z,101184.41
2022-12-25T17:20:22.233Z,101186.09
2022-12-25T17:22:53.087Z,101179.03
2022-12-25T17:25:23.592Z,101179.03
2022-12-25T17:27:54.026Z,101168.59
2022-12-25T17:30:26.713Z,101163.25
2022-12-25T17:32:58.584Z,101166.91
2022-12-25T17:35:29.509Z,101163.25
2022-12-25T17:38:00.148Z,101158.19
2022-12-25T17:40:30.878Z,101157.50
2022-12-25T17:43:01.666Z,101147.75
2022-12-25T17:45:32.506Z,101149.75
2022-12-25T17:48:06.149Z,101146.06
2022-12-25T17:50:41.244Z,101149.44
2022-12-25T17:53:12.525Z,101143.25
2022-12-25T17:55:44.239Z,101137.00
2022-12-25T17:58:14.862Z,101146.06
2022-12-25T18:00:45.223Z,101142.69
2022-12-25T18:03:15.793Z,101138.31
2022-12-25T18:05:46.263Z,101140.88
2022-12-25T18:08:16.959Z,101141.00
2022-12-25T18:10:47.557Z,101143.56
2022-12-25T18:13:20.947Z,101135.63
2022-12-25T18:15:52.091Z,101140.50
2022-12-25T18:18:23.083Z,101141.50
2022-12-25T18:20:54.987Z,101141.31
2022-12-25T18:23:25.367Z,101139.97
2022-12-25T18:25:56.135Z,101142.50
2022-12-25T18:28:26.478Z,101146.19
2022-12-25T18:30:57.281Z,101141.97
2022-12-25T18:33:28.265Z,101144.81
2022-12-25T18:36:00.324Z,101156.09
2022-12-25T18:38:31.046Z,101145.34
2022-12-25T18:41:01.562Z,101132.59
2022-12-25T18:43:52.711Z,101132.94
2022-12-25T18:46:28.178Z,101135.44
2022-12-25T18:48:59.017Z,101138.59
2022-12-25T18:51:36.792Z,101142.81
2022-12-25T18:54:07.778Z,101137.59
2022-12-25T18:56:39.280Z,101140.28
2022-12-25T18:59:19.527Z,101143.66
2022-12-25T19:01:50.326Z,101133.25
2022-12-25T19:04:20.940Z,101134.06
2022-12-25T19:06:52.239Z,101128.19
2022-12-25T19:09:22.769Z,101123.13
2022-12-25T19:11:58.038Z,101126.50
2022-12-25T19:14:32.025Z,101126.50
2022-12-25T19:17:24.325Z,101128.88
2022-12-25T19:19:57.185Z,101136.38
2022-12-25T19:22:27.809Z,101146.28
2022-12-25T19:24:58.923Z,101141.06
2022-12-25T19:27:30.113Z,101142.59
2022-12-25T19:30:00.798Z,101144.59
2022-12-25T19:32:32.834Z,101146.22
2022-12-25T19:35:05.490Z,101137.00
2022-12-25T19:37:37.747Z,101132.50
2022-12-25T19:40:09.144Z,101136.56
2022-12-25T19:42:39.909Z,101128.19
2022-12-25T19:45:10.979Z,101125.94
2022-12-25T19:47:45.184Z,101121.75
2022-12-25T19:50:15.560Z,101116.06
2022-12-25T19:52:46.241Z,101118.75
2022-12-25T19:55:16.569Z,101121.97
2022-12-25T19:57:47.414Z,101117.22
2022-12-25T20:00:18.592Z,101114.69
2022-12-25T20:02:51.061Z,101119.38
2022-12-25T20:05:24.317Z,101131.13
2022-12-25T20:07:55.669Z,101129.44
2022-12-25T20:10:26.153Z,101127.44
2022-12-25T20:12:56.785Z,101129.44
2022-12-25T20:15:27.355Z,101119.84
2022-12-25T20:17:58.257Z,101130.72
2022-12-25T20:20:28.798Z,101128.75
2022-12-25T20:22:59.309Z,101134.25
2022-12-25T20:25:30.104Z,101129.44
2022-12-25T20:28:01.738Z,101136.09
2022-12-25T20:30:32.253Z,101136.78
2022-12-25T20:33:02.953Z,101146.16
2022-12-25T20:35:34.601Z,101144.16
2022-12-25T20:38:05.316Z,101148.34
2022-12-25T20:41:00.154Z,101151.50
2022-12-25T20:43:26.526Z,101152.34
2022-12-25T20:45:57.540Z,101158.25
2022-12-25T20:48:28.536Z,101158.56
2022-12-25T20:51:18.927Z,101153.19
2022-12-25T20:53:50.411Z,101148.16
2022-12-25T20:56:23.466Z,101150.13
2022-12-25T20:58:59.195Z,101152.81
2022-12-25T21:01:31.810Z,101160.88
2022-12-25T21:04:05.410Z,101163.25
2022-12-25T21:06:36.490Z,101163.25
2022-12-25T21:09:09.875Z,101169.59
2022-12-25T21:11:40.527Z,101176.97
2022-12-25T21:14:11.896Z,101184.03
2022-12-25T21:16:45.566Z,101193.91
2022-12-25T21:19:17.354Z,101186.00
2022-12-25T21:21:47.732Z,101186.16
2022-12-25T21:24:18.474Z,101188.59
2022-12-25T21:26:48.909Z,101198.31
2022-12-25T21:29:22.189Z,101196.38
2022-12-25T21:32:13.244Z,101199.03
2022-12-25T21:34:51.927Z,101198.06
2022-12-25T21:37:22.310Z,101194.78
2022-12-25T21:39:52.797Z,101197.25
2022-12-25T21:42:23.028Z,101210.34
2022-12-25T21:44:53.683Z,101205.00
2022-12-25T21:47:27.191Z,101208.78
2022-12-25T21:50:39.268Z,101211.75
2022-12-25T21:53:10.242Z,101206.69
2022-12-25T21:55:41.588Z,101205.69
2022-12-25T21:58:12.047Z,101214.03
2022-12-25T22:00:42.443Z,101213.16
2022-12-25T22:03:13.253Z,101219.41
2022-12-25T22:06:02.380Z,101211.34
2022-12-25T22:08:35.667Z,101222.09
2022-12-25T22:11:27.870Z,101226.75
2022-12-25T22:14:17.172Z,101228.75
2022-12-25T22:17:06.235Z,101221.69
2022-12-25T22:19:45.689Z,101238.63
2022-12-25T22:22:22.150Z,101239.16
2022-12-25T22:24:59.064Z,101246.22
2022-12-25T22:27:37.444Z,101249.59
2022-12-25T22:30:10.075Z,101255.28
2022-12-25T22:32:41.342Z,101259.78
2022-12-25T22:35:13.144Z,101254.28
2022-12-25T22:37:44.158Z,101266.59
2022-12-25T22:40:17.484Z,101260.63
2022-12-25T22:42:49.212Z,101269.69
2022-12-25T22:45:20.074Z,101278.72
2022-12-25T22:47:50.510Z,101284.91
2022-12-25T22:50:21.809Z,101281.94
2022-12-25T22:52:52.485Z,101281.09
2022-12-25T22:55:23.715Z,101280.72
2022-12-25T22:57:54.497Z,101284.38
2022-12-25T23:00:25.164Z,101294.13
2022-12-25T23:02:56.231Z,101291.97
2022-12-25T23:05:27.152Z,101294.56
2022-12-25T23:07:57.669Z,101295.72
2022-12-25T23:10:28.728Z,101300.47
2022-12-25T23:13:17.566Z,101298.50
2022-12-25T23:15:51.220Z,101316.28
2022-12-25T23:18:40.009Z,101320.66
2022-12-25T23:21:35.303Z,101318.25
2022-12-25T23:24:24.560Z,101321.94
2022-12-25T23:26:55.353Z,101312.72
2022-12-25T23:29:38.094Z,101321.94
2022-12-25T23:32:10.399Z,101328.13
2022-12-25T23:34:42.608Z,101330.13
2022-12-25T23:37:13.864Z,101332.66
2022-12-25T23:39:44.538Z,101326.16
2022-12-25T23:42:15.334Z,101339.72
2022-12-25T23:44:47.139Z,101337.34
2022-12-25T23:47:17.917Z,101346.78
2022-12-25T23:49:50.513Z,101344.94
2022-12-25T23:52:21.826Z,101349.00
2022-12-25T23:54:52.244Z,101342.41
2022-12-25T23:57:23.161Z,101341.13
2022-12-25T23:59:56.471Z,101341.25
